createdAt,value
2019-02-03T00:02:04.179Z,74.74
2019-02-03T00:04:30.485Z,74.32
2019-02-03T00:07:03.281Z,75.41
2019-02-03T00:09:25.301Z,75.19
2019-02-03T00:11:51.868Z,74.92
2019-02-03T00:14:18.497Z,75.06
2019-02-03T00:16:44.791Z,75.21
2019-02-03T00:19:11.420Z,75.06
2019-02-03T00:21:38.086Z,73.84
2019-02-03T00:24:04.398Z,73.82
2019-02-03T00:26:30.737Z,74.19
2019-02-03T00:28:57.125Z,75.75
2019-02-03T00:31:23.435Z,76.73
2019-02-03T00:33:49.763Z,76.34
2019-02-03T00:36:16.859Z,76.53
2019-02-03T00:38:43.492Z,75.76
2019-02-03T00:41:10.096Z,76.64
2019-02-03T00:43:36.713Z,77.69
2019-02-03T00:46:04.408Z,76.46
2019-02-03T00:48:31.014Z,75.26
2019-02-03T00:50:57.325Z,75.44
2019-02-03T00:53:24.110Z,75.63
2019-02-03T00:55:50.471Z,76.68
2019-02-03T00:58:16.820Z,77.63
2019-02-03T01:00:43.256Z,77.35
2019-02-03T01:03:10.576Z,78.11
2019-02-03T01:05:37.119Z,77.12
2019-02-03T01:08:05.099Z,76.04
2019-02-03T01:10:31.434Z,76.22
2019-02-03T01:12:58.004Z,76.22
2019-02-03T01:15:24.568Z,75.91
2019-02-03T01:17:50.893Z,75.22
2019-02-03T01:20:22.671Z,75.04
2019-02-03T01:22:49.091Z,73.76
2019-02-03T01:25:15.806Z,74.00
2019-02-03T01:27:42.194Z,73.33
2019-02-03T01:30:18.622Z,73.41
2019-02-03T01:32:45.266Z,73.20
2019-02-03T01:35:12.001Z,73.89
2019-02-03T01:37:40.000Z,74.88
2019-02-03T01:40:15.040Z,73.71
2019-02-03T01:42:42.613Z,73.41
2019-02-03T01:45:14.034Z,73.84
2019-02-03T01:47:40.359Z,75.09
2019-02-03T01:50:10.467Z,74.59
2019-02-03T01:52:37.283Z,74.88
2019-02-03T01:55:08.197Z,75.80
2019-02-03T01:57:34.799Z,75.78
2019-02-03T02:00:01.917Z,76.71
2019-02-03T02:02:28.653Z,76.31
2019-02-03T02:04:54.973Z,76.89
2019-02-03T02:07:21.261Z,76.02
2019-02-03T02:09:47.781Z,75.28
2019-02-03T02:12:14.328Z,74.25
2019-02-03T02:14:40.977Z,74.90
2019-02-03T02:17:07.270Z,75.18
2019-02-03T02:19:33.604Z,75.01
2019-02-03T02:21:59.923Z,75.64
2019-02-03T02:24:26.390Z,74.94
2019-02-03T02:26:53.105Z,75.90
2019-02-03T02:29:19.437Z,74.77
2019-02-03T02:31:46.035Z,74.62
2019-02-03T02:34:12.318Z,74.63
2019-02-03T02:36:38.785Z,74.68
2019-02-03T02:39:06.538Z,74.96
2019-02-03T02:41:34.767Z,74.55
2019-02-03T02:44:01.738Z,74.17
2019-02-03T02:46:28.295Z,75.07
2019-02-03T02:48:54.624Z,75.46
2019-02-03T02:51:20.928Z,75.04
2019-02-03T02:53:47.252Z,74.40
2019-02-03T02:56:13.547Z,74.64
2019-02-03T02:58:40.137Z,74.48
2019-02-03T03:01:06.725Z,75.77
2019-02-03T03:03:33.317Z,76.20
2019-02-03T03:06:00.679Z,77.27
2019-02-03T03:08:27.289Z,77.31
2019-02-03T03:10:53.627Z,77.55
2019-02-03T03:13:19.922Z,77.48
2019-02-03T03:15:46.259Z,78.14
2019-02-03T03:18:12.587Z,77.90
2019-02-03T03:20:38.903Z,78.12
2019-02-03T03:23:05.259Z,78.41
2019-02-03T03:25:31.583Z,77.85
2019-02-03T03:27:58.151Z,77.83
2019-02-03T03:30:27.155Z,78.32
2019-02-03T03:32:54.164Z,77.33
2019-02-03T03:35:20.866Z,77.49
2019-02-03T03:37:47.233Z,77.60
2019-02-03T03:40:17.909Z,77.49
2019-02-03T03:42:44.540Z,77.21
2019-02-03T03:45:11.404Z,78.78
2019-02-03T03:47:38.195Z,78.46
2019-02-03T03:50:11.930Z,77.61
2019-02-03T03:52:39.437Z,77.00
2019-02-03T03:55:06.981Z,76.38
2019-02-03T03:57:33.290Z,76.18
2019-02-03T03:59:59.639Z,75.77
2019-02-03T04:02:25.942Z,76.13
2019-02-03T04:04:52.269Z,77.26
2019-02-03T04:07:19.153Z,77.70
2019-02-03T04:09:45.645Z,77.59
2019-02-03T04:12:11.978Z,78.06
2019-02-03T04:14:38.283Z,79.84
2019-02-03T04:17:04.874Z,79.81
2019-02-03T04:19:31.417Z,81.15
2019-02-03T04:21:57.751Z,80.64
2019-02-03T04:24:24.082Z,79.78
2019-02-03T04:26:50.651Z,79.37
2019-02-03T04:29:17.223Z,78.34
2019-02-03T04:31:43.783Z,79.67
2019-02-03T04:34:10.395Z,80.78
2019-02-03T04:36:37.164Z,80.65
2019-02-03T04:39:05.931Z,80.83
2019-02-03T04:41:32.352Z,80.33
2019-02-03T04:43:59.004Z,79.40
2019-02-03T04:46:25.764Z,80.44
2019-02-03T04:48:52.153Z,79.60
2019-02-03T04:51:18.455Z,79.62
2019-02-03T04:53:45.058Z,78.98
2019-02-03T04:56:11.374Z,78.71
2019-02-03T04:58:37.720Z,78.66
2019-02-03T05:01:04.544Z,79.47
2019-02-03T05:03:31.120Z,79.18
2019-02-03T05:05:57.674Z,80.10
2019-02-03T05:08:24.002Z,79.33
2019-02-03T05:10:50.575Z,80.04
2019-02-03T05:13:17.154Z,79.40
2019-02-03T05:15:43.747Z,78.42
2019-02-03T05:18:10.388Z,78.58
2019-02-03T05:20:36.709Z,78.46
2019-02-03T05:23:03.059Z,78.87
2019-02-03T05:25:29.669Z,78.49
2019-02-03T05:27:56.088Z,79.61
2019-02-03T05:30:27.020Z,79.40
2019-02-03T05:32:53.469Z,79.88
2019-02-03T05:35:20.071Z,78.86
2019-02-03T05:37:46.390Z,78.86
2019-02-03T05:40:14.705Z,79.76
2019-02-03T05:42:41.286Z,79.37
2019-02-03T05:45:12.388Z,79.55
2019-02-03T05:47:38.708Z,79.10
2019-02-03T05:50:12.474Z,78.40
2019-02-03T05:52:39.032Z,78.52
2019-02-03T05:55:06.896Z,79.31
2019-02-03T05:57:33.474Z,79.66
2019-02-03T06:00:00.091Z,79.52
2019-02-03T06:02:26.868Z,78.70
2019-02-03T06:04:53.561Z,78.53
2019-02-03T06:07:20.191Z,78.10
2019-02-03T06:09:46.509Z,78.09
2019-02-03T06:12:12.838Z,78.56
2019-02-03T06:14:39.155Z,78.39
2019-02-03T06:17:05.742Z,79.95
2019-02-03T06:19:32.102Z,79.95
2019-02-03T06:21:58.677Z,79.64
2019-02-03T06:24:25.330Z,78.79
2019-02-03T06:26:51.929Z,78.15
2019-02-03T06:29:18.341Z,77.93
2019-02-03T06:31:44.773Z,78.51
2019-02-03T06:34:11.377Z,78.41
2019-02-03T06:36:37.845Z,78.46
2019-02-03T06:39:06.498Z,79.09
2019-02-03T06:41:33.088Z,79.16
2019-02-03T06:43:59.819Z,78.65
2019-02-03T06:46:30.827Z,78.35
2019-02-03T06:48:57.803Z,78.58
2019-02-03T06:51:24.436Z,78.86
2019-02-03T06:53:51.148Z,78.90
2019-02-03T06:56:17.774Z,78.39
2019-02-03T06:58:44.136Z,79.03
2019-02-03T07:01:10.722Z,78.44
2019-02-03T07:03:37.067Z,77.63
2019-02-03T07:06:03.589Z,77.79
2019-02-03T07:08:29.893Z,77.91
2019-02-03T07:10:56.309Z,78.05
2019-02-03T07:13:23.619Z,77.86
2019-02-03T07:15:49.936Z,77.69
2019-02-03T07:18:16.558Z,78.15
2019-02-03T07:20:42.867Z,77.20
2019-02-03T07:23:09.527Z,76.86
2019-02-03T07:25:36.103Z,77.32
2019-02-03T07:28:04.509Z,78.16
2019-02-03T07:30:30.825Z,78.46
2019-02-03T07:32:57.404Z,78.19
2019-02-03T07:35:23.786Z,78.75
2019-02-03T07:37:51.112Z,78.98
2019-02-03T07:40:19.943Z,79.88
2019-02-03T07:42:46.301Z,79.83
2019-02-03T07:45:12.942Z,79.19
2019-02-03T07:47:39.630Z,78.73
2019-02-03T07:50:15.786Z,78.90
2019-02-03T07:52:42.083Z,78.19
2019-02-03T07:55:13.076Z,76.85
2019-02-03T07:57:39.658Z,76.48
2019-02-03T08:00:13.687Z,76.94
2019-02-03T08:02:40.021Z,78.06
2019-02-03T08:05:09.527Z,79.17
2019-02-03T08:07:35.821Z,78.22
2019-02-03T08:10:06.339Z,78.39
2019-02-03T08:12:32.792Z,78.79
2019-02-03T08:14:59.236Z,78.80
2019-02-03T08:17:26.245Z,79.46
2019-02-03T08:19:52.816Z,80.01
2019-02-03T08:22:19.121Z,79.93
2019-02-03T08:24:45.440Z,79.91
2019-02-03T08:27:12.046Z,79.12
2019-02-03T08:29:38.330Z,79.22
2019-02-03T08:32:04.945Z,79.40
2019-02-03T08:34:31.519Z,79.73
2019-02-03T08:36:57.885Z,81.04
2019-02-03T08:39:24.233Z,81.09
2019-02-03T08:41:50.577Z,81.75
2019-02-03T08:44:17.256Z,81.79
2019-02-03T08:46:43.621Z,81.90
2019-02-03T08:49:10.160Z,80.95
2019-02-03T08:51:36.516Z,81.18
2019-02-03T08:54:03.823Z,80.91
2019-02-03T08:56:30.196Z,80.93
2019-02-03T08:58:56.789Z,81.43
2019-02-03T09:01:23.132Z,81.03
2019-02-03T09:03:49.432Z,81.45
2019-02-03T09:06:15.783Z,81.30
2019-02-03T09:08:42.679Z,81.28
2019-02-03T09:11:27.628Z,81.45
2019-02-03T09:13:55.785Z,80.92
2019-02-03T09:16:22.231Z,81.29
2019-02-03T09:18:48.819Z,81.12
2019-02-03T09:21:15.432Z,80.34
2019-02-03T09:23:42.213Z,81.01
2019-02-03T09:26:13.167Z,81.63
2019-02-03T09:28:39.596Z,82.09
2019-02-03T09:31:06.297Z,81.67
2019-02-03T09:33:32.694Z,81.28
2019-02-03T09:35:59.027Z,80.86
2019-02-03T09:38:25.365Z,80.36
2019-02-03T09:40:59.784Z,80.53
2019-02-03T09:43:20.961Z,80.71
2019-02-03T09:45:47.531Z,81.60
2019-02-03T09:48:13.844Z,82.12
2019-02-03T09:50:40.183Z,81.70
2019-02-03T09:53:07.593Z,81.63
2019-02-03T09:55:34.057Z,81.41
2019-02-03T09:58:00.954Z,81.31
2019-02-03T10:00:35.125Z,81.15
2019-02-03T10:03:03.403Z,81.45
2019-02-03T10:05:30.053Z,80.29
2019-02-03T10:07:57.240Z,80.84
2019-02-03T10:10:35.536Z,81.32
2019-02-03T10:13:02.148Z,80.15
2019-02-03T10:15:29.226Z,81.46
2019-02-03T10:17:55.955Z,81.06
2019-02-03T10:20:23.096Z,81.52
2019-02-03T10:22:49.767Z,81.86
2019-02-03T10:25:25.001Z,80.98
2019-02-03T10:27:51.570Z,80.47
2019-02-03T10:30:21.269Z,79.78
2019-02-03T10:32:48.397Z,79.53
2019-02-03T10:35:23.449Z,80.40
2019-02-03T10:37:46.974Z,80.01
2019-02-03T10:40:18.510Z,79.88
2019-02-03T10:42:46.389Z,80.25
2019-02-03T10:45:17.355Z,80.05
2019-02-03T10:47:43.924Z,80.70
2019-02-03T10:50:23.123Z,80.67
2019-02-03T10:52:50.095Z,79.87
2019-02-03T10:55:16.762Z,80.35
2019-02-03T10:57:43.849Z,80.87
2019-02-03T11:00:18.080Z,80.94
2019-02-03T11:02:43.579Z,80.14
2019-02-03T11:05:17.697Z,80.65
2019-02-03T11:07:44.391Z,80.67
2019-02-03T11:10:16.495Z,79.90
2019-02-03T11:12:42.891Z,81.04
2019-02-03T11:15:12.371Z,80.96
2019-02-03T11:17:38.702Z,80.69
2019-02-03T11:20:18.237Z,81.31
2019-02-03T11:22:44.214Z,80.87
2019-02-03T11:25:11.286Z,79.71
2019-02-03T11:27:37.831Z,80.46
2019-02-03T11:30:20.348Z,80.92
2019-02-03T11:32:47.382Z,81.65
2019-02-03T11:35:15.486Z,81.52
2019-02-03T11:37:42.280Z,81.38
2019-02-03T11:40:13.118Z,80.25
2019-02-03T11:42:39.873Z,80.66
2019-02-03T11:45:17.443Z,80.44
2019-02-03T11:47:43.753Z,80.40
2019-02-03T11:50:15.799Z,81.06
2019-02-03T11:52:42.798Z,80.29
2019-02-03T11:55:09.412Z,80.85
2019-02-03T11:57:36.222Z,80.67
2019-02-03T12:00:16.526Z,79.70
2019-02-03T12:02:42.880Z,79.55
2019-02-03T12:05:10.044Z,79.59
2019-02-03T12:07:37.011Z,79.22
2019-02-03T12:10:12.070Z,78.97
2019-02-03T12:12:38.427Z,80.17
2019-02-03T12:15:10.533Z,81.40
2019-02-03T12:17:36.902Z,81.37
2019-02-03T12:20:07.854Z,82.08
2019-02-03T12:22:34.184Z,81.56
2019-02-03T12:25:00.630Z,81.62
2019-02-03T12:27:26.916Z,81.72
2019-02-03T12:29:53.535Z,81.57
2019-02-03T12:32:19.840Z,81.32
2019-02-03T12:34:46.448Z,81.31
2019-02-03T12:37:13.225Z,80.37
2019-02-03T12:39:39.834Z,79.66
2019-02-03T12:42:13.042Z,79.67
2019-02-03T12:44:34.925Z,79.79
2019-02-03T12:47:01.296Z,79.66
2019-02-03T12:49:27.874Z,79.81
2019-02-03T12:51:54.453Z,80.25
2019-02-03T12:54:21.015Z,79.31
2019-02-03T12:56:47.325Z,79.11
2019-02-03T12:59:13.658Z,79.21
2019-02-03T13:01:40.321Z,79.02
2019-02-03T13:04:07.033Z,79.02
2019-02-03T13:06:33.892Z,79.15
2019-02-03T13:09:00.672Z,79.17
2019-02-03T13:11:28.277Z,78.50
2019-02-03T13:13:54.686Z,78.45
2019-02-03T13:16:21.081Z,78.38
2019-02-03T13:18:47.616Z,78.46
2019-02-03T13:21:14.485Z,78.73
2019-02-03T13:23:45.090Z,79.24
2019-02-03T13:26:09.084Z,80.04
2019-02-03T13:28:35.533Z,79.85
2019-02-03T13:31:02.665Z,78.64
2019-02-03T13:33:29.109Z,78.64
2019-02-03T13:35:55.788Z,78.59
2019-02-03T13:38:22.173Z,78.76
2019-02-03T13:40:49.087Z,79.25
2019-02-03T13:43:15.912Z,78.23
2019-02-03T13:45:45.014Z,78.16
2019-02-03T13:48:11.463Z,78.42
2019-02-03T13:50:38.525Z,78.56
2019-02-03T13:53:04.914Z,78.41
2019-02-03T13:55:31.286Z,78.33
2019-02-03T13:57:57.638Z,79.85
2019-02-03T14:00:30.208Z,79.16
2019-02-03T14:02:56.746Z,80.11
2019-02-03T14:05:23.425Z,79.98
2019-02-03T14:07:50.006Z,80.11
2019-02-03T14:10:27.120Z,80.97
2019-02-03T14:12:55.101Z,80.43
2019-02-03T14:15:22.091Z,80.91
2019-02-03T14:17:49.127Z,80.32
2019-02-03T14:20:25.050Z,80.15
2019-02-03T14:22:51.836Z,80.23
2019-02-03T14:25:27.611Z,81.00
2019-02-03T14:27:54.616Z,81.85
2019-02-03T14:30:25.599Z,82.04
2019-02-03T14:32:52.186Z,81.78
2019-02-03T14:35:18.812Z,81.24
2019-02-03T14:37:45.307Z,80.55
2019-02-03T14:40:20.577Z,80.53
2019-02-03T14:42:48.511Z,80.67
2019-02-03T14:45:22.971Z,80.93
2019-02-03T14:47:50.005Z,80.34
2019-02-03T14:50:20.779Z,80.30
2019-02-03T14:52:47.991Z,81.10
2019-02-03T14:55:18.814Z,81.52
2019-02-03T14:57:45.305Z,81.30
2019-02-03T15:00:22.575Z,81.86
2019-02-03T15:02:49.243Z,81.99
2019-02-03T15:05:20.166Z,81.46
2019-02-03T15:07:46.955Z,81.62
2019-02-03T15:10:14.494Z,82.21
2019-02-03T15:12:41.056Z,83.21
2019-02-03T15:15:19.219Z,82.99
2019-02-03T15:17:45.907Z,83.08
2019-02-03T15:20:16.590Z,83.38
2019-02-03T15:22:43.304Z,82.90
2019-02-03T15:25:10.183Z,82.49
2019-02-03T15:27:36.541Z,82.57
2019-02-03T15:30:19.053Z,82.05
2019-02-03T15:32:40.495Z,82.02
2019-02-03T15:35:09.534Z,82.90
2019-02-03T15:37:36.140Z,82.48
2019-02-03T15:40:11.213Z,82.76
2019-02-03T15:42:38.894Z,82.72
2019-02-03T15:45:10.131Z,83.53
2019-02-03T15:47:36.700Z,82.61
2019-02-03T15:50:08.739Z,82.36
2019-02-03T15:52:35.395Z,82.90
2019-02-03T15:55:02.120Z,82.53
2019-02-03T15:57:30.922Z,83.13
2019-02-03T15:59:57.923Z,83.66
2019-02-03T16:02:24.689Z,83.91
2019-02-03T16:04:51.014Z,83.49
2019-02-03T16:07:17.598Z,83.11
2019-02-03T16:09:43.912Z,83.31
2019-02-03T16:12:10.356Z,83.79
2019-02-03T16:14:36.674Z,84.04
2019-02-03T16:17:03.442Z,84.43
2019-02-03T16:19:30.097Z,83.96
2019-02-03T16:21:56.423Z,84.68
2019-02-03T16:24:23.165Z,84.45
2019-02-03T16:26:49.805Z,84.37
2019-02-03T16:29:16.139Z,84.05
2019-02-03T16:31:42.742Z,84.64
2019-02-03T16:34:09.271Z,84.19
2019-02-03T16:36:35.615Z,84.58
2019-02-03T16:39:06.189Z,84.27
2019-02-03T16:41:33.921Z,83.56
2019-02-03T16:44:00.226Z,83.62
2019-02-03T16:46:26.552Z,83.64
2019-02-03T16:48:53.019Z,83.76
2019-02-03T16:51:19.484Z,83.38
2019-02-03T16:53:46.372Z,83.71
2019-02-03T16:56:13.192Z,84.33
2019-02-03T16:58:39.838Z,84.48
2019-02-03T17:01:06.471Z,83.56
2019-02-03T17:03:32.843Z,84.04
2019-02-03T17:05:59.472Z,84.33
2019-02-03T17:08:26.269Z,85.04
2019-02-03T17:10:52.717Z,84.38
2019-02-03T17:13:19.850Z,83.74
2019-02-03T17:15:50.442Z,83.86
2019-02-03T17:18:16.942Z,84.38
2019-02-03T17:20:43.775Z,83.81
2019-02-03T17:23:10.470Z,83.45
2019-02-03T17:25:48.734Z,83.76
2019-02-03T17:28:15.393Z,83.30
2019-02-03T17:30:42.031Z,83.64
2019-02-03T17:33:08.862Z,84.03
2019-02-03T17:35:35.837Z,83.58
2019-02-03T17:38:03.004Z,83.46
2019-02-03T17:40:30.680Z,83.39
2019-02-03T17:42:57.123Z,84.18
2019-02-03T17:45:25.041Z,84.23
2019-02-03T17:47:51.476Z,84.44
2019-02-03T17:50:26.554Z,84.40
2019-02-03T17:52:53.194Z,83.59
2019-02-03T17:55:19.540Z,83.93
2019-02-03T17:57:46.149Z,84.39
2019-02-03T18:00:30.626Z,84.64
2019-02-03T18:02:57.499Z,84.61
2019-02-03T18:05:26.190Z,84.50
2019-02-03T18:07:52.600Z,84.72
2019-02-03T18:10:22.563Z,85.01
2019-02-03T18:12:49.306Z,84.86
2019-02-03T18:15:16.235Z,85.02
2019-02-03T18:17:42.827Z,84.39
2019-02-03T18:20:18.910Z,85.33
2019-02-03T18:22:45.575Z,85.17
2019-02-03T18:25:12.302Z,84.47
2019-02-03T18:27:39.368Z,84.60
2019-02-03T18:30:17.374Z,84.93
2019-02-03T18:32:44.411Z,85.06
2019-02-03T18:35:12.477Z,85.20
2019-02-03T18:37:39.142Z,85.30
2019-02-03T18:40:16.588Z,85.44
2019-02-03T18:42:43.172Z,85.13
2019-02-03T18:45:13.402Z,85.80
2019-02-03T18:47:40.112Z,85.48
2019-02-03T18:50:11.519Z,85.41
2019-02-03T18:52:39.718Z,84.89
2019-02-03T18:55:23.722Z,84.82
2019-02-03T18:57:50.177Z,84.64
2019-02-03T19:00:20.291Z,84.42
2019-02-03T19:02:47.098Z,84.45
2019-02-03T19:05:17.735Z,85.18
2019-02-03T19:07:45.426Z,85.23
2019-02-03T19:10:16.291Z,85.98
2019-02-03T19:12:42.980Z,86.01
2019-02-03T19:15:11.885Z,85.04
2019-02-03T19:17:38.320Z,85.33
2019-02-03T19:20:25.042Z,85.78
2019-02-03T19:22:51.857Z,85.77
2019-02-03T19:25:20.317Z,85.66
2019-02-03T19:27:47.075Z,84.77
2019-02-03T19:30:20.432Z,86.02
2019-02-03T19:32:47.267Z,86.38
2019-02-03T19:35:16.214Z,85.75
2019-02-03T19:37:42.988Z,85.82
2019-02-03T19:40:18.419Z,86.25
2019-02-03T19:42:45.934Z,85.39
2019-02-03T19:45:21.503Z,85.19
2019-02-03T19:47:48.110Z,85.12
2019-02-03T19:50:22.640Z,84.67
2019-02-03T19:52:49.111Z,84.30
2019-02-03T19:55:15.540Z,84.22
2019-02-03T19:57:42.177Z,83.03
2019-02-03T20:00:17.406Z,83.56
2019-02-03T20:02:44.005Z,83.85
2019-02-03T20:05:10.666Z,84.10
2019-02-03T20:07:37.280Z,83.54
2019-02-03T20:10:17.759Z,83.67
2019-02-03T20:12:45.865Z,83.97
2019-02-03T20:15:15.918Z,84.46
2019-02-03T20:17:44.826Z,84.53
2019-02-03T20:20:18.438Z,84.12
2019-02-03T20:22:46.482Z,84.02
2019-02-03T20:25:13.453Z,84.35
2019-02-03T20:27:40.325Z,84.41
2019-02-03T20:30:21.258Z,84.79
2019-02-03T20:32:47.668Z,84.00
2019-02-03T20:35:20.442Z,83.65
2019-02-03T20:37:46.857Z,83.46
2019-02-03T20:40:17.986Z,82.91
2019-02-03T20:42:44.330Z,83.00
2019-02-03T20:45:20.869Z,82.96
2019-02-03T20:47:40.804Z,82.84
2019-02-03T20:50:22.712Z,82.60
2019-02-03T20:52:49.244Z,81.84
2019-02-03T20:55:19.965Z,82.31
2019-02-03T20:57:47.438Z,82.06
2019-02-03T21:00:20.380Z,82.56
2019-02-03T21:02:47.528Z,82.36
2019-02-03T21:05:13.891Z,81.82
2019-02-03T21:07:40.496Z,82.01
2019-02-03T21:10:14.353Z,81.62
2019-02-03T21:12:40.961Z,80.95
2019-02-03T21:15:14.222Z,80.84
2019-02-03T21:17:40.826Z,80.96
2019-02-03T21:20:12.840Z,81.46
2019-02-03T21:22:39.445Z,80.56
2019-02-03T21:25:06.218Z,79.82
2019-02-03T21:27:32.854Z,79.50
2019-02-03T21:29:59.449Z,79.84
2019-02-03T21:32:28.242Z,80.41
2019-02-03T21:34:54.722Z,80.58
2019-02-03T21:37:21.126Z,80.14
2019-02-03T21:39:48.914Z,79.36
2019-02-03T21:42:15.367Z,79.79
2019-02-03T21:44:42.167Z,79.28
2019-02-03T21:47:08.795Z,79.81
2019-02-03T21:49:36.291Z,79.67
2019-02-03T21:52:03.106Z,79.51
2019-02-03T21:54:29.807Z,79.20
2019-02-03T21:56:56.299Z,79.79
2019-02-03T21:59:22.684Z,80.33
2019-02-03T22:01:49.094Z,80.46
2019-02-03T22:04:16.439Z,80.31
2019-02-03T22:06:42.815Z,80.55
2019-02-03T22:09:09.519Z,81.63
2019-02-03T22:11:37.235Z,81.73
2019-02-03T22:14:03.775Z,81.73
2019-02-03T22:16:30.128Z,82.09
2019-02-03T22:18:56.818Z,81.95
2019-02-03T22:21:23.454Z,81.08
2019-02-03T22:23:50.043Z,81.85
2019-02-03T22:26:16.614Z,81.69
2019-02-03T22:28:42.909Z,80.99
2019-02-03T22:31:09.552Z,81.31
2019-02-03T22:33:36.122Z,80.30
2019-02-03T22:36:02.803Z,79.78
2019-02-03T22:38:31.322Z,79.64
2019-02-03T22:40:57.981Z,79.60
2019-02-03T22:43:24.461Z,79.73
2019-02-03T22:45:50.780Z,79.75
2019-02-03T22:48:17.446Z,79.39
2019-02-03T22:50:44.024Z,79.05
2019-02-03T22:53:10.416Z,78.23
2019-02-03T22:55:36.728Z,77.93
2019-02-03T22:58:03.385Z,77.74
2019-02-03T23:00:51.544Z,76.80
2019-02-03T23:03:21.958Z,77.29
2019-02-03T23:05:48.305Z,78.50
2019-02-03T23:08:14.628Z,78.85
2019-02-03T23:10:41.216Z,78.85
2019-02-03T23:13:07.780Z,78.87
2019-02-03T23:15:34.159Z,78.67
2019-02-03T23:18:00.908Z,79.23
2019-02-03T23:20:27.253Z,78.93
2019-02-03T23:22:53.696Z,78.73
2019-02-03T23:25:20.060Z,78.35
2019-02-03T23:27:46.393Z,78.40
2019-02-03T23:30:15.676Z,77.85
2019-02-03T23:32:42.021Z,78.02
2019-02-03T23:35:08.442Z,77.45
2019-02-03T23:37:34.761Z,77.20
2019-02-03T23:40:01.067Z,77.29
2019-02-03T23:42:27.643Z,77.40
2019-02-03T23:44:53.980Z,76.27
2019-02-03T23:47:20.561Z,76.82
2019-02-03T23:49:47.373Z,76.96
2019-02-03T23:52:13.689Z,76.55
2019-02-03T23:54:40.302Z,77.48
2019-02-03T23:57:06.648Z,76.87
2019-02-03T23:59:32.961Z,76.91
